sensor_id;sensor_type;location;lat;lon;timestamp;P1;durP1;ratioP1;P2;durP2;ratioP2
21886;SDS011;11108;49.988;8.182;2023-03-08T00:01:12;0.70;;;0.70;;
21886;SDS011;11108;49.988;8.182;2023-03-08T00:03:38;1.20;;;0.83;;
21886;SDS011;11108;49.988;8.182;2023-03-08T00:06:04;0.80;;;0.80;;
21886;SDS011;11108;49.988;8.182;2023-03-08T00:08:29;0.87;;;0.87;;
21886;SDS011;11108;49.988;8.182;2023-03-08T00:10:54;0.77;;;0.77;;
21886;SDS011;11108;49.988;8.182;2023-03-08T00:13:20;0.70;;;0.70;;
21886;SDS011;11108;49.988;8.182;2023-03-08T00:15:45;0.80;;;0.80;;
21886;SDS011;11108;49.988;8.182;2023-03-08T00:18:10;1.43;;;0.80;;
21886;SDS011;11108;49.988;8.182;2023-03-08T00:20:35;0.87;;;0.87;;
21886;SDS011;11108;49.988;8.182;2023-03-08T00:23:00;0.80;;;0.80;;
21886;SDS011;11108;49.988;8.182;2023-03-08T00:25:26;0.67;;;0.67;;
21886;SDS011;11108;49.988;8.182;2023-03-08T00:27:51;0.97;;;0.90;;
21886;SDS011;11108;49.988;8.182;2023-03-08T00:30:16;0.87;;;0.87;;
21886;SDS011;11108;49.988;8.182;2023-03-08T00:32:41;0.73;;;0.73;;
21886;SDS011;11108;49.988;8.182;2023-03-08T00:35:07;0.80;;;0.80;;
21886;SDS011;11108;49.988;8.182;2023-03-08T00:37:32;0.77;;;0.77;;
21886;SDS011;11108;49.988;8.182;2023-03-08T00:39:57;0.80;;;0.80;;
21886;SDS011;11108;49.988;8.182;2023-03-08T00:42:23;1.00;;;1.00;;
21886;SDS011;11108;49.988;8.182;2023-03-08T00:44:48;0.83;;;0.83;;
21886;SDS011;11108;49.988;8.182;2023-03-08T00:47:14;0.80;;;0.80;;
21886;SDS011;11108;49.988;8.182;2023-03-08T00:49:39;0.80;;;0.80;;
21886;SDS011;11108;49.988;8.182;2023-03-08T00:52:04;0.80;;;0.80;;
21886;SDS011;11108;49.988;8.182;2023-03-08T00:54:30;0.93;;;0.83;;
21886;SDS011;11108;49.988;8.182;2023-03-08T00:56:55;0.70;;;0.70;;
21886;SDS011;11108;49.988;8.182;2023-03-08T00:59:21;0.73;;;0.70;;
21886;SDS011;11108;49.988;8.182;2023-03-08T01:01:46;0.80;;;0.80;;
21886;SDS011;11108;49.988;8.182;2023-03-08T01:04:11;0.77;;;0.77;;
21886;SDS011;11108;49.988;8.182;2023-03-08T01:06:37;1.57;;;1.30;;
21886;SDS011;11108;49.988;8.182;2023-03-08T01:09:02;0.67;;;0.67;;
21886;SDS011;11108;49.988;8.182;2023-03-08T01:11:28;0.80;;;0.80;;
21886;SDS011;11108;49.988;8.182;2023-03-08T01:13:53;0.60;;;0.60;;
21886;SDS011;11108;49.988;8.182;2023-03-08T01:16:20;0.77;;;0.77;;
21886;SDS011;11108;49.988;8.182;2023-03-08T01:18:45;0.80;;;0.80;;
21886;SDS011;11108;49.988;8.182;2023-03-08T01:21:10;0.70;;;0.70;;
21886;SDS011;11108;49.988;8.182;2023-03-08T01:23:36;0.70;;;0.70;;
21886;SDS011;11108;49.988;8.182;2023-03-08T01:26:02;0.87;;;0.53;;
21886;SDS011;11108;49.988;8.182;2023-03-08T01:28:28;0.77;;;0.77;;
21886;SDS011;11108;49.988;8.182;2023-03-08T01:30:53;0.70;;;0.70;;
21886;SDS011;11108;49.988;8.182;2023-03-08T01:33:18;0.70;;;0.70;;
21886;SDS011;11108;49.988;8.182;2023-03-08T01:35:45;1.17;;;0.70;;
21886;SDS011;11108;49.988;8.182;2023-03-08T01:38:10;0.70;;;0.70;;
21886;SDS011;11108;49.988;8.182;2023-03-08T01:40:35;0.70;;;0.70;;
21886;SDS011;11108;49.988;8.182;2023-03-08T01:43:10;0.90;;;0.90;;
21886;SDS011;11108;49.988;8.182;2023-03-08T01:48:29;0.67;;;0.67;;
21886;SDS011;11108;49.988;8.182;2023-03-08T01:50:55;1.03;;;0.50;;
21886;SDS011;11108;49.988;8.182;2023-03-08T01:53:20;0.87;;;0.87;;
21886;SDS011;11108;49.988;8.182;2023-03-08T01:55:46;0.60;;;0.60;;
21886;SDS011;11108;49.988;8.182;2023-03-08T01:58:11;0.60;;;0.60;;
21886;SDS011;11108;49.988;8.182;2023-03-08T02:00:37;0.80;;;0.80;;
21886;SDS011;11108;49.988;8.182;2023-03-08T02:03:04;0.80;;;0.80;;
21886;SDS011;11108;49.988;8.182;2023-03-08T02:05:30;0.47;;;0.47;;
21886;SDS011;11108;49.988;8.182;2023-03-08T02:07:56;0.60;;;0.60;;
21886;SDS011;11108;49.988;8.182;2023-03-08T02:10:21;0.70;;;0.70;;
21886;SDS011;11108;49.988;8.182;2023-03-08T02:12:47;0.90;;;0.90;;
21886;SDS011;11108;49.988;8.182;2023-03-08T02:15:13;0.80;;;0.80;;
21886;SDS011;11108;49.988;8.182;2023-03-08T02:17:39;0.50;;;0.50;;
21886;SDS011;11108;49.988;8.182;2023-03-08T02:20:14;0.57;;;0.57;;
21886;SDS011;11108;49.988;8.182;2023-03-08T02:22:40;0.70;;;0.70;;
21886;SDS011;11108;49.988;8.182;2023-03-08T02:25:16;0.87;;;0.80;;
21886;SDS011;11108;49.988;8.182;2023-03-08T02:27:42;0.50;;;0.50;;
21886;SDS011;11108;49.988;8.182;2023-03-08T02:30:08;0.60;;;0.60;;
21886;SDS011;11108;49.988;8.182;2023-03-08T02:32:33;0.60;;;0.60;;
21886;SDS011;11108;49.988;8.182;2023-03-08T02:34:59;0.60;;;0.60;;
21886;SDS011;11108;49.988;8.182;2023-03-08T02:37:24;0.70;;;0.70;;
21886;SDS011;11108;49.988;8.182;2023-03-08T02:39:49;0.67;;;0.67;;
21886;SDS011;11108;49.988;8.182;2023-03-08T02:42:14;0.60;;;0.60;;
21886;SDS011;11108;49.988;8.182;2023-03-08T02:44:39;0.70;;;0.70;;
21886;SDS011;11108;49.988;8.182;2023-03-08T02:47:05;0.60;;;0.60;;
21886;SDS011;11108;49.988;8.182;2023-03-08T02:49:30;0.60;;;0.60;;
21886;SDS011;11108;49.988;8.182;2023-03-08T02:51:55;0.60;;;0.60;;
21886;SDS011;11108;49.988;8.182;2023-03-08T02:54:20;1.03;;;0.50;;
21886;SDS011;11108;49.988;8.182;2023-03-08T02:56:45;0.67;;;0.67;;
21886;SDS011;11108;49.988;8.182;2023-03-08T02:59:11;0.80;;;0.80;;
21886;SDS011;11108;49.988;8.182;2023-03-08T03:01:36;0.40;;;0.40;;
21886;SDS011;11108;49.988;8.182;2023-03-08T03:04:01;0.67;;;0.67;;
21886;SDS011;11108;49.988;8.182;2023-03-08T03:06:26;0.77;;;0.77;;
21886;SDS011;11108;49.988;8.182;2023-03-08T03:08:52;0.50;;;0.50;;
21886;SDS011;11108;49.988;8.182;2023-03-08T03:11:18;0.57;;;0.57;;
21886;SDS011;11108;49.988;8.182;2023-03-08T03:13:44;0.60;;;0.60;;
21886;SDS011;11108;49.988;8.182;2023-03-08T03:16:11;0.40;;;0.40;;
21886;SDS011;11108;49.988;8.182;2023-03-08T03:18:36;0.50;;;0.50;;
21886;SDS011;11108;49.988;8.182;2023-03-08T03:21:06;0.97;;;0.70;;
21886;SDS011;11108;49.988;8.182;2023-03-08T03:23:31;0.70;;;0.70;;
21886;SDS011;11108;49.988;8.182;2023-03-08T03:26:02;0.60;;;0.60;;
21886;SDS011;11108;49.988;8.182;2023-03-08T03:28:27;0.50;;;0.50;;
21886;SDS011;11108;49.988;8.182;2023-03-08T03:30:53;0.70;;;0.70;;
21886;SDS011;11108;49.988;8.182;2023-03-08T03:33:18;0.50;;;0.50;;
21886;SDS011;11108;49.988;8.182;2023-03-08T03:35:43;0.70;;;0.70;;
21886;SDS011;11108;49.988;8.182;2023-03-08T03:38:08;0.43;;;0.43;;
21886;SDS011;11108;49.988;8.182;2023-03-08T03:40:33;0.80;;;0.80;;
21886;SDS011;11108;49.988;8.182;2023-03-08T03:42:59;0.60;;;0.60;;
21886;SDS011;11108;49.988;8.182;2023-03-08T03:45:24;0.60;;;0.60;;
21886;SDS011;11108;49.988;8.182;2023-03-08T03:47:49;0.60;;;0.60;;
21886;SDS011;11108;49.988;8.182;2023-03-08T03:50:14;0.60;;;0.60;;
21886;SDS011;11108;49.988;8.182;2023-03-08T03:52:40;0.50;;;0.50;;
21886;SDS011;11108;49.988;8.182;2023-03-08T03:55:05;0.57;;;0.57;;
21886;SDS011;11108;49.988;8.182;2023-03-08T03:57:30;0.60;;;0.60;;
21886;SDS011;11108;49.988;8.182;2023-03-08T03:59:55;0.67;;;0.67;;
21886;SDS011;11108;49.988;8.182;2023-03-08T04:02:21;0.50;;;0.50;;
21886;SDS011;11108;49.988;8.182;2023-03-08T04:04:47;0.50;;;0.50;;
21886;SDS011;11108;49.988;8.182;2023-03-08T04:07:13;0.97;;;0.50;;
21886;SDS011;11108;49.988;8.182;2023-03-08T04:09:38;0.50;;;0.50;;
21886;SDS011;11108;49.988;8.182;2023-03-08T04:12:03;0.77;;;0.77;;
21886;SDS011;11108;49.988;8.182;2023-03-08T04:14:29;0.70;;;0.70;;
21886;SDS011;11108;49.988;8.182;2023-03-08T04:16:55;0.63;;;0.63;;
21886;SDS011;11108;49.988;8.182;2023-03-08T04:19:20;0.90;;;0.80;;
21886;SDS011;11108;49.988;8.182;2023-03-08T04:21:45;0.60;;;0.60;;
21886;SDS011;11108;49.988;8.182;2023-03-08T04:24:10;0.60;;;0.60;;
21886;SDS011;11108;49.988;8.182;2023-03-08T04:26:35;0.90;;;0.90;;
21886;SDS011;11108;49.988;8.182;2023-03-08T04:29:01;0.80;;;0.80;;
21886;SDS011;11108;49.988;8.182;2023-03-08T04:31:30;0.60;;;0.60;;
21886;SDS011;11108;49.988;8.182;2023-03-08T04:33:55;0.93;;;0.90;;
21886;SDS011;11108;49.988;8.182;2023-03-08T04:36:22;0.63;;;0.63;;
21886;SDS011;11108;49.988;8.182;2023-03-08T04:38:47;0.90;;;0.90;;
21886;SDS011;11108;49.988;8.182;2023-03-08T04:41:13;0.80;;;0.80;;
21886;SDS011;11108;49.988;8.182;2023-03-08T04:43:38;0.90;;;0.90;;
21886;SDS011;11108;49.988;8.182;2023-03-08T04:46:04;0.70;;;0.70;;
21886;SDS011;11108;49.988;8.182;2023-03-08T04:48:30;0.87;;;0.87;;
21886;SDS011;11108;49.988;8.182;2023-03-08T04:50:56;0.53;;;0.53;;
21886;SDS011;11108;49.988;8.182;2023-03-08T04:53:22;0.70;;;0.70;;
21886;SDS011;11108;49.988;8.182;2023-03-08T04:55:48;0.90;;;0.90;;
21886;SDS011;11108;49.988;8.182;2023-03-08T04:58:13;1.07;;;1.07;;
21886;SDS011;11108;49.988;8.182;2023-03-08T05:00:38;0.80;;;0.80;;
21886;SDS011;11108;49.988;8.182;2023-03-08T05:03:03;1.47;;;0.90;;
21886;SDS011;11108;49.988;8.182;2023-03-08T05:05:30;0.70;;;0.70;;
21886;SDS011;11108;49.988;8.182;2023-03-08T05:07:55;0.90;;;0.90;;
21886;SDS011;11108;49.988;8.182;2023-03-08T05:10:20;1.00;;;1.00;;
21886;SDS011;11108;49.988;8.182;2023-03-08T05:12:46;1.30;;;1.20;;
21886;SDS011;11108;49.988;8.182;2023-03-08T05:15:11;0.90;;;0.80;;
21886;SDS011;11108;49.988;8.182;2023-03-08T05:17:36;0.83;;;0.83;;
21886;SDS011;11108;49.988;8.182;2023-03-08T05:20:01;0.80;;;0.80;;
21886;SDS011;11108;49.988;8.182;2023-03-08T05:22:28;0.87;;;0.80;;
21886;SDS011;11108;49.988;8.182;2023-03-08T05:24:53;1.00;;;1.00;;
21886;SDS011;11108;49.988;8.182;2023-03-08T05:27:18;0.70;;;0.70;;
21886;SDS011;11108;49.988;8.182;2023-03-08T05:29:43;0.80;;;0.80;;
21886;SDS011;11108;49.988;8.182;2023-03-08T05:32:12;0.70;;;0.70;;
21886;SDS011;11108;49.988;8.182;2023-03-08T05:34:37;0.80;;;0.80;;
21886;SDS011;11108;49.988;8.182;2023-03-08T05:37:02;1.00;;;1.00;;
21886;SDS011;11108;49.988;8.182;2023-03-08T05:39:27;1.10;;;1.00;;
21886;SDS011;11108;49.988;8.182;2023-03-08T05:41:54;0.97;;;0.97;;
21886;SDS011;11108;49.988;8.182;2023-03-08T05:44:19;0.80;;;0.80;;
21886;SDS011;11108;49.988;8.182;2023-03-08T05:46:44;1.00;;;1.00;;
21886;SDS011;11108;49.988;8.182;2023-03-08T05:49:09;0.90;;;0.90;;
21886;SDS011;11108;49.988;8.182;2023-03-08T05:51:35;1.13;;;1.10;;
21886;SDS011;11108;49.988;8.182;2023-03-08T05:54:00;0.83;;;0.83;;
21886;SDS011;11108;49.988;8.182;2023-03-08T05:56:25;1.07;;;1.00;;
21886;SDS011;11108;49.988;8.182;2023-03-08T05:58:51;1.47;;;1.10;;
21886;SDS011;11108;49.988;8.182;2023-03-08T06:01:20;0.90;;;0.90;;
21886;SDS011;11108;49.988;8.182;2023-03-08T06:03:48;0.90;;;0.90;;
21886;SDS011;11108;49.988;8.182;2023-03-08T06:06:13;1.00;;;1.00;;
21886;SDS011;11108;49.988;8.182;2023-03-08T06:08:39;0.80;;;0.80;;
21886;SDS011;11108;49.988;8.182;2023-03-08T06:11:04;1.00;;;1.00;;
21886;SDS011;11108;49.988;8.182;2023-03-08T06:13:29;0.77;;;0.77;;
21886;SDS011;11108;49.988;8.182;2023-03-08T06:15:55;1.00;;;1.00;;
21886;SDS011;11108;49.988;8.182;2023-03-08T06:18:20;1.10;;;1.10;;
21886;SDS011;11108;49.988;8.182;2023-03-08T06:20:54;0.87;;;0.87;;
21886;SDS011;11108;49.988;8.182;2023-03-08T06:23:19;0.90;;;0.90;;
21886;SDS011;11108;49.988;8.182;2023-03-08T06:25:44;0.80;;;0.80;;
21886;SDS011;11108;49.988;8.182;2023-03-08T06:28:09;1.10;;;1.10;;
21886;SDS011;11108;49.988;8.182;2023-03-08T06:30:35;0.90;;;0.90;;
21886;SDS011;11108;49.988;8.182;2023-03-08T06:33:00;1.37;;;1.37;;
21886;SDS011;11108;49.988;8.182;2023-03-08T06:35:25;1.00;;;1.00;;
21886;SDS011;11108;49.988;8.182;2023-03-08T06:37:50;1.00;;;1.00;;
21886;SDS011;11108;49.988;8.182;2023-03-08T06:40:16;1.17;;;0.80;;
21886;SDS011;11108;49.988;8.182;2023-03-08T06:42:41;0.93;;;0.93;;
21886;SDS011;11108;49.988;8.182;2023-03-08T06:45:06;0.80;;;0.80;;
21886;SDS011;11108;49.988;8.182;2023-03-08T06:47:32;1.13;;;1.07;;
21886;SDS011;11108;49.988;8.182;2023-03-08T06:49:57;1.00;;;1.00;;
21886;SDS011;11108;49.988;8.182;2023-03-08T06:52:22;0.90;;;0.90;;
21886;SDS011;11108;49.988;8.182;2023-03-08T06:54:47;1.07;;;1.07;;
21886;SDS011;11108;49.988;8.182;2023-03-08T06:57:13;1.50;;;1.40;;
21886;SDS011;11108;49.988;8.182;2023-03-08T06:59:38;1.50;;;1.40;;
21886;SDS011;11108;49.988;8.182;2023-03-08T07:02:03;1.10;;;1.10;;
21886;SDS011;11108;49.988;8.182;2023-03-08T07:04:28;1.57;;;1.10;;
21886;SDS011;11108;49.988;8.182;2023-03-08T07:06:53;1.13;;;1.10;;
21886;SDS011;11108;49.988;8.182;2023-03-08T07:09:19;1.33;;;1.23;;
21886;SDS011;11108;49.988;8.182;2023-03-08T07:11:44;3.70;;;1.53;;
21886;SDS011;11108;49.988;8.182;2023-03-08T07:14:09;1.00;;;1.00;;
21886;SDS011;11108;49.988;8.182;2023-03-08T07:16:34;1.30;;;1.00;;
21886;SDS011;11108;49.988;8.182;2023-03-08T07:19:00;1.93;;;1.10;;
21886;SDS011;11108;49.988;8.182;2023-03-08T07:21:25;0.97;;;0.97;;
21886;SDS011;11108;49.988;8.182;2023-03-08T07:23:51;1.20;;;1.10;;
21886;SDS011;11108;49.988;8.182;2023-03-08T07:26:16;1.17;;;1.13;;
21886;SDS011;11108;49.988;8.182;2023-03-08T07:28:42;6.13;;;1.17;;
21886;SDS011;11108;49.988;8.182;2023-03-08T07:31:08;1.30;;;1.20;;
21886;SDS011;11108;49.988;8.182;2023-03-08T07:33:34;1.03;;;1.03;;
21886;SDS011;11108;49.988;8.182;2023-03-08T07:35:59;1.50;;;1.40;;
21886;SDS011;11108;49.988;8.182;2023-03-08T07:38:26;1.40;;;1.30;;
21886;SDS011;11108;49.988;8.182;2023-03-08T07:40:54;1.30;;;1.20;;
21886;SDS011;11108;49.988;8.182;2023-03-08T07:43:20;1.03;;;1.03;;
21886;SDS011;11108;49.988;8.182;2023-03-08T07:45:45;1.53;;;1.20;;
21886;SDS011;11108;49.988;8.182;2023-03-08T07:48:10;1.00;;;1.00;;
21886;SDS011;11108;49.988;8.182;2023-03-08T07:50:35;1.13;;;1.13;;
21886;SDS011;11108;49.988;8.182;2023-03-08T07:53:00;1.27;;;1.27;;
21886;SDS011;11108;49.988;8.182;2023-03-08T07:55:26;1.30;;;1.20;;
21886;SDS011;11108;49.988;8.182;2023-03-08T07:57:51;1.30;;;1.30;;
21886;SDS011;11108;49.988;8.182;2023-03-08T08:00:17;1.67;;;1.13;;
21886;SDS011;11108;49.988;8.182;2023-03-08T08:02:42;2.97;;;1.10;;
21886;SDS011;11108;49.988;8.182;2023-03-08T08:05:07;1.33;;;1.23;;
21886;SDS011;11108;49.988;8.182;2023-03-08T08:07:32;0.87;;;0.87;;
21886;SDS011;11108;49.988;8.182;2023-03-08T08:09:58;1.40;;;1.30;;
21886;SDS011;11108;49.988;8.182;2023-03-08T08:12:23;1.23;;;1.20;;
21886;SDS011;11108;49.988;8.182;2023-03-08T08:14:51;1.03;;;1.00;;
21886;SDS011;11108;49.988;8.182;2023-03-08T08:17:17;1.60;;;1.17;;
21886;SDS011;11108;49.988;8.182;2023-03-08T08:19:43;1.50;;;1.40;;
21886;SDS011;11108;49.988;8.182;2023-03-08T08:22:08;1.30;;;1.20;;
21886;SDS011;11108;49.988;8.182;2023-03-08T08:24:33;1.07;;;1.00;;
21886;SDS011;11108;49.988;8.182;2023-03-08T08:26:58;2.30;;;1.20;;
21886;SDS011;11108;49.988;8.182;2023-03-08T08:29:24;1.67;;;1.50;;
21886;SDS011;11108;49.988;8.182;2023-03-08T08:31:49;1.30;;;1.30;;
21886;SDS011;11108;49.988;8.182;2023-03-08T08:34:16;1.50;;;1.10;;
21886;SDS011;11108;49.988;8.182;2023-03-08T08:36:42;1.70;;;0.90;;
21886;SDS011;11108;49.988;8.182;2023-03-08T08:39:07;1.57;;;1.20;;
21886;SDS011;11108;49.988;8.182;2023-03-08T08:41:32;2.10;;;1.30;;
21886;SDS011;11108;49.988;8.182;2023-03-08T08:43:58;1.67;;;1.30;;
21886;SDS011;11108;49.988;8.182;2023-03-08T08:46:24;1.23;;;1.23;;
21886;SDS011;11108;49.988;8.182;2023-03-08T08:48:49;1.27;;;1.10;;
21886;SDS011;11108;49.988;8.182;2023-03-08T08:51:14;1.93;;;1.40;;
21886;SDS011;11108;49.988;8.182;2023-03-08T08:53:40;1.37;;;1.30;;
21886;SDS011;11108;49.988;8.182;2023-03-08T08:58:37;1.40;;;1.30;;
21886;SDS011;11108;49.988;8.182;2023-03-08T09:01:02;1.20;;;1.10;;
21886;SDS011;11108;49.988;8.182;2023-03-08T09:03:27;1.10;;;1.10;;
21886;SDS011;11108;49.988;8.182;2023-03-08T09:05:53;1.30;;;1.30;;
21886;SDS011;11108;49.988;8.182;2023-03-08T09:08:18;0.93;;;0.93;;
21886;SDS011;11108;49.988;8.182;2023-03-08T09:10:43;2.53;;;1.30;;
21886;SDS011;11108;49.988;8.182;2023-03-08T09:13:09;1.20;;;1.20;;
21886;SDS011;11108;49.988;8.182;2023-03-08T09:15:34;1.30;;;1.20;;
21886;SDS011;11108;49.988;8.182;2023-03-08T09:18:01;1.30;;;1.13;;
21886;SDS011;11108;49.988;8.182;2023-03-08T09:20:26;4.63;;;1.40;;
21886;SDS011;11108;49.988;8.182;2023-03-08T09:22:52;1.77;;;1.30;;
21886;SDS011;11108;49.988;8.182;2023-03-08T09:25:17;1.33;;;1.30;;
21886;SDS011;11108;49.988;8.182;2023-03-08T09:27:44;1.10;;;1.10;;
21886;SDS011;11108;49.988;8.182;2023-03-08T09:30:11;1.10;;;1.10;;
21886;SDS011;11108;49.988;8.182;2023-03-08T09:32:36;1.80;;;1.13;;
21886;SDS011;11108;49.988;8.182;2023-03-08T09:35:01;1.63;;;1.30;;
21886;SDS011;11108;49.988;8.182;2023-03-08T09:37:28;1.40;;;1.40;;
21886;SDS011;11108;49.988;8.182;2023-03-08T09:39:54;1.33;;;1.30;;
21886;SDS011;11108;49.988;8.182;2023-03-08T09:42:20;2.43;;;1.67;;
21886;SDS011;11108;49.988;8.182;2023-03-08T09:47:19;8.97;;;2.90;;
21886;SDS011;11108;49.988;8.182;2023-03-08T09:49:47;14.13;;;3.77;;
21886;SDS011;11108;49.988;8.182;2023-03-08T09:52:34;8.27;;;3.60;;
21886;SDS011;11108;49.988;8.182;2023-03-08T09:55:02;10.20;;;3.43;;
21886;SDS011;11108;49.988;8.182;2023-03-08T09:57:39;9.77;;;2.77;;
21886;SDS011;11108;49.988;8.182;2023-03-08T10:00:09;4.13;;;2.47;;
21886;SDS011;11108;49.988;8.182;2023-03-08T10:02:59;7.73;;;2.60;;
21886;SDS011;11108;49.988;8.182;2023-03-08T10:08:00;8.40;;;2.37;;
21886;SDS011;11108;49.988;8.182;2023-03-08T10:15:25;3.10;;;2.50;;
21886;SDS011;11108;49.988;8.182;2023-03-08T10:17:59;6.53;;;2.23;;
21886;SDS011;11108;49.988;8.182;2023-03-08T10:20:27;4.30;;;2.47;;
21886;SDS011;11108;49.988;8.182;2023-03-08T10:22:58;5.97;;;1.83;;
21886;SDS011;11108;49.988;8.182;2023-03-08T10:25:25;3.93;;;1.90;;
21886;SDS011;11108;49.988;8.182;2023-03-08T10:27:53;4.83;;;2.10;;
21886;SDS011;11108;49.988;8.182;2023-03-08T10:30:20;3.13;;;2.33;;
21886;SDS011;11108;49.988;8.182;2023-03-08T10:32:46;4.17;;;2.00;;
21886;SDS011;11108;49.988;8.182;2023-03-08T10:35:11;3.57;;;1.77;;
21886;SDS011;11108;49.988;8.182;2023-03-08T10:37:37;4.40;;;2.20;;
21886;SDS011;11108;49.988;8.182;2023-03-08T10:40:06;4.10;;;1.80;;
21886;SDS011;11108;49.988;8.182;2023-03-08T10:42:31;4.33;;;1.77;;
21886;SDS011;11108;49.988;8.182;2023-03-08T10:45:09;5.17;;;2.03;;
21886;SDS011;11108;49.988;8.182;2023-03-08T10:47:37;5.67;;;1.77;;
21886;SDS011;11108;49.988;8.182;2023-03-08T10:50:11;2.53;;;1.47;;
21886;SDS011;11108;49.988;8.182;2023-03-08T10:52:37;2.40;;;2.03;;
21886;SDS011;11108;49.988;8.182;2023-03-08T10:55:04;3.43;;;1.63;;
21886;SDS011;11108;49.988;8.182;2023-03-08T10:57:29;3.13;;;1.80;;
21886;SDS011;11108;49.988;8.182;2023-03-08T10:59:56;4.10;;;1.63;;
21886;SDS011;11108;49.988;8.182;2023-03-08T11:02:22;5.23;;;2.13;;
21886;SDS011;11108;49.988;8.182;2023-03-08T11:04:54;2.63;;;1.50;;
21886;SDS011;11108;49.988;8.182;2023-03-08T11:07:24;2.50;;;1.83;;
21886;SDS011;11108;49.988;8.182;2023-03-08T11:09:50;5.23;;;1.80;;
21886;SDS011;11108;49.988;8.182;2023-03-08T11:12:23;2.13;;;1.43;;
21886;SDS011;11108;49.988;8.182;2023-03-08T11:14:49;4.20;;;2.07;;
21886;SDS011;11108;49.988;8.182;2023-03-08T11:17:20;2.33;;;1.73;;
21886;SDS011;11108;49.988;8.182;2023-03-08T11:22:32;2.97;;;1.60;;
21886;SDS011;11108;49.988;8.182;2023-03-08T11:37:22;4.97;;;1.70;;
21886;SDS011;11108;49.988;8.182;2023-03-08T11:42:23;3.00;;;1.37;;
21886;SDS011;11108;49.988;8.182;2023-03-08T11:45:07;1.50;;;1.40;;
21886;SDS011;11108;49.988;8.182;2023-03-08T11:47:48;2.60;;;1.80;;
21886;SDS011;11108;49.988;8.182;2023-03-08T11:55:27;2.60;;;1.50;;
21886;SDS011;11108;49.988;8.182;2023-03-08T11:57:56;1.63;;;1.43;;
21886;SDS011;11108;49.988;8.182;2023-03-08T12:00:23;1.90;;;1.70;;
21886;SDS011;11108;49.988;8.182;2023-03-08T12:02:50;1.40;;;1.40;;
21886;SDS011;11108;49.988;8.182;2023-03-08T12:07:54;1.53;;;1.50;;
21886;SDS011;11108;49.988;8.182;2023-03-08T12:10:27;1.87;;;1.30;;
21886;SDS011;11108;49.988;8.182;2023-03-08T12:15:38;2.13;;;1.47;;
21886;SDS011;11108;49.988;8.182;2023-03-08T12:18:09;1.53;;;1.47;;
21886;SDS011;11108;49.988;8.182;2023-03-08T12:20:39;1.53;;;1.23;;
21886;SDS011;11108;49.988;8.182;2023-03-08T12:25:34;1.60;;;1.50;;
21886;SDS011;11108;49.988;8.182;2023-03-08T12:33:13;1.40;;;1.40;;
21886;SDS011;11108;49.988;8.182;2023-03-08T12:35:52;1.53;;;1.30;;
21886;SDS011;11108;49.988;8.182;2023-03-08T12:40:51;2.30;;;1.50;;
21886;SDS011;11108;49.988;8.182;2023-03-08T12:45:59;5.47;;;2.30;;
21886;SDS011;11108;49.988;8.182;2023-03-08T12:48:25;8.07;;;3.17;;
21886;SDS011;11108;49.988;8.182;2023-03-08T12:58:38;18.20;;;8.77;;
21886;SDS011;11108;49.988;8.182;2023-03-08T13:01:05;14.33;;;8.57;;
21886;SDS011;11108;49.988;8.182;2023-03-08T13:03:38;19.47;;;9.90;;
21886;SDS011;11108;49.988;8.182;2023-03-08T13:09:01;21.40;;;10.87;;
21886;SDS011;11108;49.988;8.182;2023-03-08T13:11:36;19.27;;;9.30;;
21886;SDS011;11108;49.988;8.182;2023-03-08T13:14:02;22.90;;;10.03;;
21886;SDS011;11108;49.988;8.182;2023-03-08T13:16:34;22.60;;;10.60;;
21886;SDS011;11108;49.988;8.182;2023-03-08T13:21:47;22.93;;;10.77;;
21886;SDS011;11108;49.988;8.182;2023-03-08T13:29:29;19.17;;;10.33;;
21886;SDS011;11108;49.988;8.182;2023-03-08T13:31:55;22.27;;;10.67;;
21886;SDS011;11108;49.988;8.182;2023-03-08T13:34:31;18.93;;;10.23;;
21886;SDS011;11108;49.988;8.182;2023-03-08T13:36:56;26.23;;;10.17;;
21886;SDS011;11108;49.988;8.182;2023-03-08T13:39:26;18.93;;;9.10;;
21886;SDS011;11108;49.988;8.182;2023-03-08T13:41:51;13.80;;;8.67;;
21886;SDS011;11108;49.988;8.182;2023-03-08T13:46:42;17.13;;;8.77;;
21886;SDS011;11108;49.988;8.182;2023-03-08T13:49:24;17.57;;;9.23;;
21886;SDS011;11108;49.988;8.182;2023-03-08T13:51:51;13.83;;;8.20;;
21886;SDS011;11108;49.988;8.182;2023-03-08T13:54:20;17.93;;;8.70;;
21886;SDS011;11108;49.988;8.182;2023-03-08T13:56:57;19.37;;;8.43;;
21886;SDS011;11108;49.988;8.182;2023-03-08T13:59:23;15.33;;;7.90;;
21886;SDS011;11108;49.988;8.182;2023-03-08T14:01:49;17.90;;;9.83;;
21886;SDS011;11108;49.988;8.182;2023-03-08T14:04:20;13.77;;;8.77;;
21886;SDS011;11108;49.988;8.182;2023-03-08T14:06:49;13.73;;;8.13;;
21886;SDS011;11108;49.988;8.182;2023-03-08T14:09:15;9.30;;;6.27;;
21886;SDS011;11108;49.988;8.182;2023-03-08T14:11:42;18.90;;;7.87;;
21886;SDS011;11108;49.988;8.182;2023-03-08T14:14:13;12.80;;;6.57;;
21886;SDS011;11108;49.988;8.182;2023-03-08T14:16:40;14.53;;;7.37;;
21886;SDS011;11108;49.988;8.182;2023-03-08T14:19:18;14.50;;;7.77;;
21886;SDS011;11108;49.988;8.182;2023-03-08T14:21:48;15.03;;;7.13;;
21886;SDS011;11108;49.988;8.182;2023-03-08T14:24:16;11.80;;;6.70;;
21886;SDS011;11108;49.988;8.182;2023-03-08T14:26:51;12.50;;;6.97;;
21886;SDS011;11108;49.988;8.182;2023-03-08T14:29:18;15.37;;;7.13;;
21886;SDS011;11108;49.988;8.182;2023-03-08T14:34:22;9.57;;;6.30;;
21886;SDS011;11108;49.988;8.182;2023-03-08T14:36:52;11.93;;;5.50;;
21886;SDS011;11108;49.988;8.182;2023-03-08T14:39:18;11.30;;;6.33;;
21886;SDS011;11108;49.988;8.182;2023-03-08T14:41:43;8.37;;;6.33;;
21886;SDS011;11108;49.988;8.182;2023-03-08T14:44:16;12.03;;;6.60;;
21886;SDS011;11108;49.988;8.182;2023-03-08T14:46:42;11.73;;;5.70;;
21886;SDS011;11108;49.988;8.182;2023-03-08T14:49:16;12.47;;;5.40;;
21886;SDS011;11108;49.988;8.182;2023-03-08T14:51:42;9.23;;;5.67;;
21886;SDS011;11108;49.988;8.182;2023-03-08T14:56:52;9.93;;;5.40;;
21886;SDS011;11108;49.988;8.182;2023-03-08T14:59:17;8.53;;;4.60;;
21886;SDS011;11108;49.988;8.182;2023-03-08T15:01:42;9.13;;;4.63;;
21886;SDS011;11108;49.988;8.182;2023-03-08T15:04:18;9.43;;;5.80;;
21886;SDS011;11108;49.988;8.182;2023-03-08T15:06:43;7.47;;;4.97;;
21886;SDS011;11108;49.988;8.182;2023-03-08T15:09:09;9.17;;;4.83;;
21886;SDS011;11108;49.988;8.182;2023-03-08T15:11:34;6.70;;;4.60;;
21886;SDS011;11108;49.988;8.182;2023-03-08T15:14:00;9.87;;;4.90;;
21886;SDS011;11108;49.988;8.182;2023-03-08T15:16:25;5.07;;;4.13;;
21886;SDS011;11108;49.988;8.182;2023-03-08T15:18:51;6.10;;;4.53;;
21886;SDS011;11108;49.988;8.182;2023-03-08T15:21:18;9.47;;;5.20;;
21886;SDS011;11108;49.988;8.182;2023-03-08T15:23:44;7.47;;;4.43;;
21886;SDS011;11108;49.988;8.182;2023-03-08T15:26:12;9.10;;;5.13;;
21886;SDS011;11108;49.988;8.182;2023-03-08T15:28:38;4.73;;;4.20;;
21886;SDS011;11108;49.988;8.182;2023-03-08T15:31:03;6.80;;;4.13;;
21886;SDS011;11108;49.988;8.182;2023-03-08T15:33:28;6.30;;;4.77;;
21886;SDS011;11108;49.988;8.182;2023-03-08T15:35:53;5.50;;;4.10;;
21886;SDS011;11108;49.988;8.182;2023-03-08T15:38:19;6.00;;;3.67;;
21886;SDS011;11108;49.988;8.182;2023-03-08T15:40:45;6.40;;;4.17;;
21886;SDS011;11108;49.988;8.182;2023-03-08T15:43:10;4.97;;;4.20;;
21886;SDS011;11108;49.988;8.182;2023-03-08T15:45:35;5.73;;;4.07;;
21886;SDS011;11108;49.988;8.182;2023-03-08T15:48:02;6.90;;;4.40;;
21886;SDS011;11108;49.988;8.182;2023-03-08T15:50:28;8.37;;;3.97;;
21886;SDS011;11108;49.988;8.182;2023-03-08T15:52:53;6.60;;;3.77;;
21886;SDS011;11108;49.988;8.182;2023-03-08T15:55:20;6.13;;;4.10;;
21886;SDS011;11108;49.988;8.182;2023-03-08T15:57:45;5.17;;;4.10;;
21886;SDS011;11108;49.988;8.182;2023-03-08T16:00:11;5.07;;;3.87;;
21886;SDS011;11108;49.988;8.182;2023-03-08T16:02:37;5.23;;;3.87;;
21886;SDS011;11108;49.988;8.182;2023-03-08T16:05:06;5.67;;;3.93;;